Time;durP1;ratioP1;P1;durP2;ratioP2;P2;SDS_P1;SDS_P2;PMS_P1;PMS_P2;Temp;Humidity;BMP_temperature;BMP_pressure;BME280_temperature;BME280_humidity;BME280_pressure;Samples;Min_cycle;Max_cycle;Signal;HPM_P1;HPM_P2
2022/04/20 00:00:11;;;;;;;13.55;5.13;;;25.00;99.90;;;;;;5085036;22;20445;-44
2022/04/20 00:02:37;;;;;;;8.90;4.85;;;25.00;99.90;;;;;;5042438;28;20026;-43
2022/04/20 00:05:03;;;;;;;11.32;4.60;;;25.00;99.90;;;;;;5046893;28;20037;-43
2022/04/20 00:07:28;;;;;;;7.70;5.47;;;25.00;99.90;;;;;;5042397;28;20024;-43
2022/04/20 00:09:55;;;;;;;7.68;5.18;;;25.00;99.90;;;;;;5038080;28;20091;-43
2022/04/20 00:12:21;;;;;;;8.82;5.40;;;25.00;99.90;;;;;;5040793;28;20307;-44
2022/04/20 00:14:46;;;;;;;8.65;5.15;;;25.00;99.90;;;;;;5052139;28;20091;-42
2022/04/20 00:17:12;;;;;;;7.35;4.93;;;25.00;99.90;;;;;;5052189;28;20040;-43
2022/04/20 00:19:38;;;;;;;8.20;4.53;;;25.00;99.90;;;;;;5052517;28;20032;-43
2022/04/20 00:22:04;;;;;;;8.23;4.90;;;25.00;99.90;;;;;;5023056;28;20645;-44
2022/04/20 00:24:30;;;;;;;7.32;4.57;;;25.00;99.90;;;;;;5037003;28;20025;-44
2022/04/20 00:26:56;;;;;;;6.45;4.35;;;25.00;99.90;;;;;;5035195;28;20029;-43
2022/04/20 00:29:21;;;;;;;8.63;5.20;;;25.00;99.90;;;;;;5052502;28;20023;-43
2022/04/20 00:31:47;;;;;;;8.85;5.47;;;25.00;99.90;;;;;;5052485;28;20385;-43
2022/04/20 00:34:13;;;;;;;6.88;4.80;;;25.00;99.90;;;;;;5048221;28;20055;-43
2022/04/20 00:36:39;;;;;;;7.15;5.05;;;24.90;99.90;;;;;;5034567;28;20013;-43
2022/04/20 00:39:05;;;;;;;8.32;5.28;;;24.90;99.90;;;;;;5050774;28;20502;-44
2022/04/20 00:41:31;;;;;;;8.05;4.90;;;24.90;99.90;;;;;;5051985;28;20031;-43
2022/04/20 00:43:58;;;;;;;7.90;5.20;;;24.90;99.90;;;;;;5052059;28;20079;-43
2022/04/20 00:46:25;;;;;;;8.05;4.80;;;24.90;99.90;;;;;;5052088;28;20040;-43
2022/04/20 00:48:52;;;;;;;9.27;5.10;;;24.90;99.90;;;;;;5052095;28;20473;-43
2022/04/20 00:51:18;;;;;;;6.38;4.53;;;24.90;99.90;;;;;;5041257;28;20023;-44
2022/04/20 00:53:43;;;;;;;8.50;4.75;;;24.90;99.90;;;;;;5052232;28;20029;-45
2022/04/20 00:56:09;;;;;;;7.57;4.57;;;24.90;99.90;;;;;;5041787;28;20108;-45
2022/04/20 00:58:39;;;;;;;6.90;4.90;;;24.80;99.90;;;;;;5048478;28;20029;-45
2022/04/20 01:01:06;;;;;;;9.80;4.85;;;24.80;99.90;;;;;;5016253;28;20055;-44
2022/04/20 01:03:32;;;;;;;7.47;4.25;;;24.80;99.90;;;;;;5050023;28;20431;-45
2022/04/20 01:05:57;;;;;;;6.60;4.57;;;24.80;99.90;;;;;;5050924;28;20025;-45
2022/04/20 01:08:24;;;;;;;7.45;4.68;;;24.80;99.90;;;;;;5047218;28;20020;-45
2022/04/20 01:10:50;;;;;;;8.70;4.82;;;24.80;99.90;;;;;;5051669;28;20032;-45
2022/04/20 01:13:15;;;;;;;7.70;4.43;;;24.80;99.90;;;;;;5045747;28;20021;-45
2022/04/20 01:15:42;;;;;;;8.68;4.93;;;24.80;99.90;;;;;;5031902;28;20587;-45
2022/04/20 01:18:15;;;;;;;6.10;4.32;;;24.80;99.90;;;;;;5026404;28;20028;-45
2022/04/20 01:20:42;;;;;;;7.05;4.85;;;24.70;99.90;;;;;;5030751;28;20033;-45
2022/04/20 01:23:08;;;;;;;7.17;4.33;;;24.70;99.90;;;;;;5031569;28;20036;-45
2022/04/20 01:25:34;;;;;;;7.75;4.25;;;24.70;99.90;;;;;;5045726;28;20032;-44
2022/04/20 01:28:01;;;;;;;8.65;4.72;;;24.70;99.90;;;;;;5050668;28;20017;-45
2022/04/20 01:30:27;;;;;;;8.70;4.63;;;24.70;99.90;;;;;;5049395;28;20032;-44
2022/04/20 01:32:55;;;;;;;7.75;5.07;;;24.70;99.90;;;;;;5049776;28;20025;-45
2022/04/20 01:35:22;;;;;;;6.53;4.00;;;24.70;99.90;;;;;;5049515;28;20356;-44
2022/04/20 01:37:52;;;;;;;6.37;4.53;;;24.70;99.90;;;;;;5048841;28;20436;-44
2022/04/20 01:40:18;;;;;;;7.30;4.55;;;24.60;99.90;;;;;;5048434;28;20033;-44
2022/04/20 01:42:44;;;;;;;6.97;4.40;;;24.60;99.90;;;;;;5048393;28;20099;-44
2022/04/20 01:45:10;;;;;;;7.88;4.47;;;24.60;99.90;;;;;;5051097;28;20059;-44
2022/04/20 01:47:37;;;;;;;5.25;4.03;;;24.60;99.90;;;;;;5051339;28;20362;-44
2022/04/20 01:50:04;;;;;;;6.35;4.40;;;24.60;99.90;;;;;;5051142;28;20025;-44
2022/04/20 01:52:30;;;;;;;7.35;4.25;;;24.60;99.90;;;;;;5050667;28;20029;-44
2022/04/20 01:54:55;;;;;;;7.63;4.30;;;24.50;99.90;;;;;;5051205;28;20075;-45
2022/04/20 01:57:21;;;;;;;8.48;4.20;;;24.50;99.90;;;;;;5051271;28;20031;-44
2022/04/20 01:59:47;;;;;;;8.13;4.40;;;24.50;99.90;;;;;;5051245;28;20405;-45
2022/04/20 02:04:57;;;;;;;5.05;3.72;;;24.50;99.90;;;;;;5050991;28;20074;-44
2022/04/20 02:07:23;;;;;;;5.93;3.97;;;24.50;99.90;;;;;;5051071;28;20028;-44
2022/04/20 02:09:48;;;;;;;6.88;3.97;;;24.50;99.90;;;;;;5050880;28;20303;-45
2022/04/20 02:12:14;;;;;;;7.80;4.40;;;24.50;99.90;;;;;;5050934;28;20027;-44
2022/04/20 02:14:40;;;;;;;5.68;3.75;;;24.50;99.90;;;;;;5050569;28;20431;-44
2022/04/20 02:17:06;;;;;;;7.85;3.95;;;24.50;99.90;;;;;;5049469;28;20512;-44
2022/04/20 02:19:32;;;;;;;6.55;3.70;;;24.50;99.90;;;;;;5051088;28;20121;-44
2022/04/20 02:21:58;;;;;;;5.80;3.80;;;24.50;99.90;;;;;;5050814;28;20029;-44
2022/04/20 02:24:23;;;;;;;7.65;4.78;;;24.50;99.90;;;;;;5032985;28;20029;-44
2022/04/20 02:26:49;;;;;;;6.93;4.20;;;24.40;99.90;;;;;;5050890;28;20033;-44
2022/04/20 02:29:15;;;;;;;5.32;3.60;;;24.50;99.90;;;;;;5050688;28;20033;-44
2022/04/20 02:31:41;;;;;;;6.07;3.85;;;24.50;99.90;;;;;;5050817;28;20025;-44
2022/04/20 02:34:07;;;;;;;4.93;3.22;;;24.40;99.90;;;;;;5050660;28;20125;-44
2022/04/20 02:36:33;;;;;;;5.05;3.50;;;24.40;99.90;;;;;;5051017;28;20013;-45
2022/04/20 02:39:03;;;;;;;5.88;3.95;;;24.40;99.90;;;;;;5050861;28;20102;-44
2022/04/20 02:41:30;;;;;;;5.35;3.20;;;24.40;99.90;;;;;;5050467;28;20096;-45
2022/04/20 02:43:56;;;;;;;4.40;3.40;;;24.40;99.90;;;;;;5050896;28;20028;-44
2022/04/20 02:46:23;;;;;;;6.05;4.22;;;24.40;99.90;;;;;;5050594;28;20519;-45
2022/04/20 02:48:50;;;;;;;5.82;3.33;;;24.40;99.90;;;;;;5050641;28;20037;-43
2022/04/20 02:51:15;;;;;;;4.60;3.20;;;24.30;99.90;;;;;;5050595;28;20094;-44
2022/04/20 02:53:41;;;;;;;6.30;3.35;;;24.30;99.90;;;;;;5050539;28;20262;-44
2022/04/20 02:56:07;;;;;;;5.82;3.40;;;24.30;99.90;;;;;;5050731;28;20474;-44
2022/04/20 02:58:33;;;;;;;5.00;3.28;;;24.30;99.90;;;;;;5050007;28;20154;-44
2022/04/20 03:00:59;;;;;;;5.72;3.80;;;24.30;99.90;;;;;;5076322;22;20053;-51
2022/04/20 03:03:24;;;;;;;4.63;3.40;;;24.30;99.90;;;;;;5070525;28;20443;-51
2022/04/20 03:05:51;;;;;;;6.97;3.72;;;24.30;99.90;;;;;;5069345;28;20476;-51
2022/04/20 03:08:18;;;;;;;6.30;3.28;;;24.30;99.90;;;;;;5070566;28;20481;-51
2022/04/20 03:10:44;;;;;;;5.03;2.88;;;24.30;99.90;;;;;;5070721;28;20103;-51
2022/04/20 03:13:10;;;;;;;3.88;2.88;;;24.30;99.90;;;;;;5069132;28;20104;-51
2022/04/20 03:15:35;;;;;;;4.45;3.03;;;24.30;99.90;;;;;;5070956;28;20103;-50
2022/04/20 03:18:02;;;;;;;6.13;3.83;;;24.30;99.90;;;;;;5070489;28;20025;-51
2022/04/20 03:20:27;;;;;;;4.88;2.90;;;24.30;99.90;;;;;;5070391;28;20446;-51
2022/04/20 03:22:53;;;;;;;4.72;2.95;;;24.30;99.90;;;;;;5070624;28;20020;-50
2022/04/20 03:25:19;;;;;;;4.95;3.20;;;24.20;99.90;;;;;;5070492;28;20028;-51
2022/04/20 03:27:45;;;;;;;5.63;3.40;;;24.20;99.90;;;;;;5074060;28;20527;-51
2022/04/20 03:30:12;;;;;;;7.85;2.90;;;24.20;99.90;;;;;;5077567;28;20434;-51
2022/04/20 03:32:39;;;;;;;5.30;3.00;;;24.20;99.90;;;;;;5072504;28;20042;-51
2022/04/20 03:35:05;;;;;;;8.20;3.33;;;24.20;99.90;;;;;;5074363;28;20383;-51
2022/04/20 03:37:31;;;;;;;4.28;2.55;;;24.20;99.90;;;;;;5073975;28;20387;-52
2022/04/20 03:39:58;;;;;;;4.65;2.40;;;24.20;99.90;;;;;;5073999;28;20028;-52
2022/04/20 03:42:24;;;;;;;;;;;24.20;99.90;;;;;;5074429;28;20028;-52
2022/04/20 03:44:50;;;;;;;6.32;2.92;;;24.20;99.90;;;;;;5073791;28;20004;-52
2022/04/20 03:47:16;;;;;;;4.60;2.58;;;24.20;99.90;;;;;;5073720;28;20033;-52
2022/04/20 03:49:41;;;;;;;3.92;2.50;;;24.20;99.90;;;;;;5073559;28;20016;-52
2022/04/20 03:52:07;;;;;;;3.55;2.13;;;24.10;99.90;;;;;;5074077;28;20395;-52
2022/04/20 03:54:35;;;;;;;5.18;2.85;;;24.20;99.90;;;;;;5073567;28;20487;-52
2022/04/20 03:57:04;;;;;;;3.88;2.33;;;24.10;99.90;;;;;;5073641;28;20025;-52
2022/04/20 03:59:34;;;;;;;3.97;2.70;;;24.10;99.90;;;;;;5083197;28;20509;-52
2022/04/20 04:02:00;;;;;;;3.63;2.20;;;24.10;99.90;;;;;;5060104;28;20064;-52
2022/04/20 04:04:27;;;;;;;7.18;3.63;;;24.10;99.90;;;;;;5055495;28;20025;-52
2022/04/20 04:06:53;;;;;;;4.72;2.30;;;24.10;99.90;;;;;;5073811;28;20023;-52
2022/04/20 04:09:19;;;;;;;3.58;2.25;;;24.10;99.90;;;;;;5085241;28;20108;-52
2022/04/20 04:11:45;;;;;;;3.65;2.22;;;24.10;99.90;;;;;;5076659;28;20075;-52
2022/04/20 04:14:10;;;;;;;5.20;2.25;;;24.10;99.90;;;;;;5073374;28;20023;-52
2022/04/20 04:16:36;;;;;;;3.70;2.38;;;24.10;99.90;;;;;;5073262;28;20056;-58
2022/04/20 04:19:04;;;;;;;4.15;2.95;;;24.10;99.90;;;;;;5073082;28;20119;-52
2022/04/20 04:21:31;;;;;;;2.85;2.13;;;24.10;99.90;;;;;;5073107;28;20395;-52
2022/04/20 04:23:57;;;;;;;2.88;1.98;;;24.00;99.90;;;;;;5073061;28;20047;-51
2022/04/20 04:26:23;;;;;;;7.55;2.53;;;24.00;99.90;;;;;;5072916;28;20499;-51
2022/04/20 04:28:49;;;;;;;3.92;2.65;;;24.00;99.90;;;;;;5073597;28;20349;-52
2022/04/20 04:31:15;;;;;;;3.95;2.30;;;24.00;99.90;;;;;;5073367;28;20027;-52
2022/04/20 04:33:41;;;;;;;3.08;2.30;;;24.00;99.90;;;;;;5072780;28;20452;-51
2022/04/20 04:36:07;;;;;;;4.57;2.17;;;24.00;99.90;;;;;;5072819;28;20028;-51
2022/04/20 04:38:33;;;;;;;4.25;2.38;;;24.00;99.90;;;;;;5072685;28;20418;-51
2022/04/20 04:40:59;;;;;;;4.03;2.17;;;24.00;99.90;;;;;;5072587;28;20492;-51
2022/04/20 04:43:25;;;;;;;3.40;2.42;;;24.00;99.90;;;;;;5072803;28;20035;-52
2022/04/20 04:48:39;;;;;;;2.28;2.03;;;24.00;99.90;;;;;;5060465;28;20074;-51
2022/04/20 04:51:06;;;;;;;4.00;2.00;;;24.00;99.90;;;;;;5081984;28;20067;-51
2022/04/20 04:53:32;;;;;;;5.00;2.50;;;24.00;99.90;;;;;;5072570;28;20111;-51
2022/04/20 04:55:58;;;;;;;2.63;1.83;;;24.00;99.90;;;;;;5072408;28;20052;-50
2022/04/20 04:58:24;;;;;;;4.65;2.40;;;23.90;99.90;;;;;;5070902;28;20459;-51
2022/04/20 05:00:50;;;;;;;2.38;1.75;;;23.90;99.90;;;;;;5072029;28;20041;-50
2022/04/20 05:03:17;;;;;;;4.35;2.25;;;23.90;99.90;;;;;;5072125;28;20032;-50
2022/04/20 05:05:46;;;;;;;2.77;2.00;;;23.90;99.90;;;;;;5072392;28;20028;-50
2022/04/20 05:08:12;;;;;;;3.95;1.83;;;23.90;99.90;;;;;;5072343;28;20370;-51
2022/04/20 05:10:38;;;;;;;2.83;2.00;;;23.90;99.90;;;;;;5072300;28;20127;-51
2022/04/20 05:13:07;;;;;;;4.10;2.03;;;23.90;99.90;;;;;;5072032;28;20384;-51
2022/04/20 05:15:34;;;;;;;3.35;2.08;;;23.90;99.90;;;;;;5071860;28;20471;-52
2022/04/20 05:18:00;;;;;;;3.22;1.70;;;23.80;99.90;;;;;;5070744;28;20070;-51
2022/04/20 05:20:26;;;;;;;3.25;1.73;;;23.90;99.90;;;;;;5073379;28;20040;-52
2022/04/20 05:22:52;;;;;;;4.88;2.25;;;23.80;99.90;;;;;;5071848;28;20028;-51
2022/04/20 05:25:19;;;;;;;3.38;2.15;;;23.80;99.90;;;;;;5070532;28;20037;-52
2022/04/20 05:27:45;;;;;;;4.32;2.00;;;23.80;99.90;;;;;;5071597;28;20028;-51
2022/04/20 05:30:15;;;;;;;3.17;1.80;;;23.80;99.90;;;;;;5071811;28;20025;-52
2022/04/20 05:32:41;;;;;;;2.25;1.58;;;23.80;99.90;;;;;;5071621;28;20036;-52
2022/04/20 05:35:09;;;;;;;3.15;1.80;;;23.80;99.90;;;;;;5071515;28;20026;-52
2022/04/20 05:43:03;;;;;;;3.08;2.00;;;23.80;99.90;;;;;;5071644;28;20097;-52
2022/04/20 05:45:29;;;;;;;6.65;2.05;;;23.80;99.90;;;;;;5071598;28;20082;-52
2022/04/20 05:47:58;;;;;;;4.18;1.80;;;23.70;99.90;;;;;;5071214;28;20568;-52
2022/04/20 05:50:24;;;;;;;5.43;2.10;;;23.70;99.90;;;;;;5071158;28;20021;-52
2022/04/20 05:52:50;;;;;;;2.83;1.92;;;23.70;99.90;;;;;;5076876;28;20036;-52
2022/04/20 05:55:16;;;;;;;3.00;1.48;;;23.70;99.90;;;;;;5071291;28;20170;-51
2022/04/20 05:57:42;;;;;;;2.17;1.52;;;23.70;99.90;;;;;;5071401;28;20052;-52
2022/04/20 06:00:08;;;;;;;4.45;1.90;;;23.70;99.90;;;;;;5069611;28;20504;-51
2022/04/20 06:02:34;;;;;;;6.05;2.55;;;23.70;99.90;;;;;;5071155;28;20059;-53
2022/04/20 06:05:01;;;;;;;3.15;1.60;;;23.70;99.90;;;;;;5070989;28;20052;-52
2022/04/20 06:07:27;;;;;;;3.92;1.67;;;23.70;99.90;;;;;;5071160;28;20016;-51
2022/04/20 06:09:53;;;;;;;2.85;1.50;;;23.70;99.90;;;;;;5071321;28;20020;-52
2022/04/20 06:12:22;;;;;;;7.65;2.17;;;23.70;99.90;;;;;;5071084;28;20122;-53
2022/04/20 06:14:48;;;;;;;2.38;1.60;;;23.70;99.90;;;;;;5071135;28;20028;-50
2022/04/20 06:17:14;;;;;;;2.70;1.65;;;23.70;99.90;;;;;;5071210;28;20037;-52
2022/04/20 06:19:40;;;;;;;4.60;2.03;;;23.70;99.90;;;;;;5070899;28;20068;-51
2022/04/20 06:22:06;;;;;;;6.85;1.88;;;23.70;99.90;;;;;;5074700;28;20056;-52
2022/04/20 06:24:32;;;;;;;3.47;1.63;;;23.70;99.90;;;;;;5070857;28;20085;-52
2022/04/20 06:26:57;;;;;;;3.20;1.80;;;23.70;99.90;;;;;;5071011;28;20031;-51
2022/04/20 06:29:23;;;;;;;4.30;2.10;;;23.70;99.90;;;;;;5070714;28;20012;-50
2022/04/20 06:31:51;;;;;;;3.65;2.22;;;23.70;99.90;;;;;;5070847;28;20134;-50
2022/04/20 06:34:20;;;;;;;;;;;23.70;99.90;;;;;;5071396;28;20031;-50
2022/04/20 06:36:45;;;;;;;4.47;2.47;;;23.70;99.90;;;;;;5071438;28;19912;-51
2022/04/20 06:39:11;;;;;;;5.28;2.50;;;23.70;99.90;;;;;;5070591;28;20033;-50
2022/04/20 06:41:37;;;;;;;4.82;3.20;;;23.70;99.90;;;;;;5070774;28;20165;-52
2022/04/20 06:44:03;;;;;;;6.93;3.88;;;23.60;99.90;;;;;;5070741;28;20036;-51
2022/04/20 06:46:29;;;;;;;7.03;3.88;;;23.70;99.90;;;;;;5070487;28;20025;-51
2022/04/20 06:48:55;;;;;;;7.57;4.57;;;23.60;99.90;;;;;;5070820;28;20478;-51
2022/04/20 06:51:21;;;;;;;7.95;4.72;;;23.60;99.90;;;;;;5071669;28;20104;-51
2022/04/20 06:59:15;;;;;;;12.93;7.53;;;23.70;99.90;;;;;;5075555;28;20078;-50
2022/04/20 07:01:41;;;;;;;10.45;6.55;;;23.60;99.90;;;;;;5079650;28;20072;-51
2022/04/20 07:04:07;;;;;;;11.13;6.45;;;23.70;99.90;;;;;;5084921;28;20028;-51
2022/04/20 07:06:33;;;;;;;9.18;6.68;;;23.70;99.90;;;;;;5074371;28;20494;-52
2022/04/20 07:08:59;;;;;;;11.55;7.35;;;23.60;99.90;;;;;;5074310;28;20494;-51
2022/04/20 07:11:28;;;;;;;11.75;7.82;;;23.60;99.90;;;;;;5074226;28;20052;-51
2022/04/20 07:13:56;;;;;;;13.20;7.43;;;23.60;99.90;;;;;;5074237;28;20028;-51
2022/04/20 07:16:23;;;;;;;11.18;7.47;;;23.60;99.90;;;;;;5074079;28;20098;-51
2022/04/20 07:18:48;;;;;;;10.55;7.40;;;23.60;99.90;;;;;;5074049;28;20039;-51
2022/04/20 07:21:14;;;;;;;11.48;7.28;;;23.60;99.90;;;;;;5074098;28;20028;-51
2022/04/20 07:23:40;;;;;;;9.60;6.65;;;23.60;99.90;;;;;;5074215;28;20059;-51
2022/04/20 07:26:06;;;;;;;9.52;6.78;;;23.50;99.90;;;;;;5073915;28;20024;-51
2022/04/20 07:28:32;;;;;;;12.20;8.02;;;23.50;99.90;;;;;;5073986;28;20025;-51
2022/04/20 07:30:58;;;;;;;9.00;6.82;;;23.60;99.90;;;;;;5075672;28;20039;-52
2022/04/20 07:33:24;;;;;;;11.25;6.88;;;23.50;99.90;;;;;;5085343;28;20419;-52
2022/04/20 07:35:50;;;;;;;12.25;6.00;;;23.50;99.90;;;;;;5073985;28;20052;-51
2022/04/20 07:38:16;;;;;;;8.25;6.28;;;23.50;99.90;;;;;;5073975;28;20085;-52
2022/04/20 07:40:42;;;;;;;9.60;6.28;;;23.50;99.90;;;;;;5073829;28;20434;-51
2022/04/20 07:43:08;;;;;;;9.50;6.30;;;23.50;99.90;;;;;;5072391;28;20387;-52
2022/04/20 07:45:34;;;;;;;10.45;5.97;;;23.50;99.90;;;;;;5073801;28;20032;-51
2022/04/20 07:47:59;;;;;;;9.30;6.10;;;23.50;99.90;;;;;;5073350;28;20377;-52
2022/04/20 07:50:26;;;;;;;9.07;5.70;;;23.50;99.90;;;;;;5073558;28;20108;-51
2022/04/20 07:52:55;;;;;;;7.85;5.10;;;23.50;99.90;;;;;;5072092;28;20025;-51
2022/04/20 07:55:31;;;;;;;9.30;5.55;;;23.50;99.90;;;;;;5073775;28;20034;-51
2022/04/20 07:57:59;;;;;;;8.30;5.85;;;23.50;99.90;;;;;;5073335;28;20025;-51
2022/04/20 08:00:26;;;;;;;7.95;5.65;;;23.50;99.90;;;;;;5072017;28;20512;-51
2022/04/20 08:03:15;;;;;;;9.10;5.40;;;23.50;99.90;;;;;;5072109;28;20392;-51
2022/04/20 08:05:42;;;;;;;9.23;5.32;;;23.50;99.90;;;;;;5073132;28;20051;-52
2022/04/20 08:08:10;;;;;;;10.35;6.00;;;23.50;99.90;;;;;;5073128;28;20028;-52
2022/04/20 08:10:37;;;;;;;10.55;5.70;;;23.50;99.90;;;;;;5075847;28;20029;-52
2022/04/20 08:14:09;;;;;;;8.02;5.15;;;23.50;99.90;;;;;;5072980;28;20017;-52
2022/04/20 08:15:49;;;;;;;9.77;4.80;;;23.50;99.90;;;;;;5073240;28;20035;-52
2022/04/20 08:18:16;;;;;;;12.98;5.65;;;23.50;99.90;;;;;;5073060;28;20020;-52
2022/04/20 08:20:41;;;;;;;6.72;4.75;;;23.50;99.90;;;;;;5073014;28;20060;-51
2022/04/20 08:23:07;;;;;;;6.07;4.45;;;23.50;99.90;;;;;;5073128;28;20525;-53
2022/04/20 08:25:33;;;;;;;10.52;5.22;;;23.50;99.90;;;;;;5072902;28;20033;-51
2022/04/20 08:27:59;;;;;;;8.07;5.38;;;23.50;99.90;;;;;;5072998;28;20129;-52
2022/04/20 08:30:24;;;;;;;9.25;5.20;;;23.60;99.90;;;;;;5072898;28;20392;-52
2022/04/20 08:32:50;;;;;;;8.55;4.90;;;23.60;99.90;;;;;;5072960;28;20032;-52
2022/04/20 08:35:16;;;;;;;8.95;4.50;;;23.60;99.90;;;;;;5072786;28;20448;-52
2022/04/20 08:37:42;;;;;;;7.97;4.25;;;23.60;99.90;;;;;;5072662;28;20020;-52
2022/04/20 08:40:08;;;;;;;7.93;4.78;;;23.70;99.90;;;;;;5071329;28;20036;-51
2022/04/20 08:42:35;;;;;;;8.20;4.38;;;23.70;99.90;;;;;;5072523;28;20028;-53
2022/04/20 08:45:03;;;;;;;9.18;5.47;;;23.70;99.90;;;;;;5072790;28;20028;-52
2022/04/20 08:47:33;;;;;;;;;;;23.70;99.90;;;;;;5073023;28;20021;-51
2022/04/20 08:50:04;;;;;;;5.18;4.13;;;23.70;99.90;;;;;;5072428;28;19933;-52
2022/04/20 08:52:39;;;;;;;9.82;4.70;;;23.70;99.90;;;;;;5072478;28;20017;-52
2022/04/20 08:55:07;;;;;;;10.07;5.13;;;23.70;99.90;;;;;;5072140;28;20028;-51
2022/04/20 08:57:34;;;;;;;6.88;4.70;;;23.70;99.90;;;;;;5072282;28;20093;-52
2022/04/20 09:00:04;;;;;;;8.77;4.03;;;23.80;99.90;;;;;;5071836;28;20044;-52
2022/04/20 09:02:31;;;;;;;8.85;4.72;;;23.80;99.90;;;;;;5078071;28;20093;-52
2022/04/20 09:04:57;;;;;;;6.45;3.80;;;23.70;99.90;;;;;;5075509;28;20028;-52
2022/04/20 09:07:24;;;;;;;13.15;4.25;;;23.80;99.90;;;;;;5072305;28;20020;-52
2022/04/20 09:09:50;;;;;;;8.60;4.25;;;23.70;99.90;;;;;;5072133;28;20032;-52
2022/04/20 09:12:18;;;;;;;6.97;4.30;;;23.80;99.90;;;;;;5072074;28;20491;-52
2022/04/20 09:14:47;;;;;;;8.32;4.90;;;23.70;99.90;;;;;;5072097;28;20032;-52
2022/04/20 09:17:15;;;;;;;7.25;3.70;;;23.70;99.90;;;;;;5070420;28;20017;-52
2022/04/20 09:19:42;;;;;;;8.20;4.70;;;23.70;99.90;;;;;;5071740;28;20129;-52
2022/04/20 09:22:27;;;;;;;7.63;4.03;;;23.70;99.90;;;;;;5070557;28;20388;-52
2022/04/20 09:24:59;;;;;;;6.85;4.53;;;23.70;99.90;;;;;;5060069;28;20261;-51
2022/04/20 09:27:27;;;;;;;9.10;4.65;;;23.70;99.90;;;;;;5071765;28;20047;-52
2022/04/20 09:29:57;;;;;;;7.88;3.47;;;23.70;99.90;;;;;;5071749;28;20024;-51
2022/04/20 09:32:40;;;;;;;8.95;4.75;;;23.70;99.90;;;;;;5075382;28;20138;-52
2022/04/20 09:35:12;;;;;;;6.75;3.47;;;23.70;99.90;;;;;;5071568;28;20032;-52
2022/04/20 09:37:40;;;;;;;13.75;4.60;;;23.70;99.90;;;;;;5071430;28;20493;-51
2022/04/20 09:40:11;;;;;;;9.13;3.97;;;23.70;99.90;;;;;;5071513;28;20036;-51
2022/04/20 09:42:38;;;;;;;7.82;4.20;;;23.70;99.90;;;;;;5071221;28;20021;-51
2022/04/20 09:45:07;;;;;;;10.65;4.72;;;23.70;99.90;;;;;;5071421;28;20155;-50
2022/04/20 09:50:26;;;;;;;8.55;4.78;;;23.70;99.90;;;;;;5059891;28;20154;-52
2022/04/20 09:53:00;;;;;;;7.32;4.43;;;23.70;99.90;;;;;;5071353;28;20128;-52
2022/04/20 09:55:31;;;;;;;7.38;4.10;;;23.60;99.90;;;;;;5071339;28;20120;-51
2022/04/20 09:58:13;;;;;;;10.65;4.70;;;23.60;99.90;;;;;;5071108;28;20024;-51
2022/04/20 10:00:52;;;;;;;10.13;4.25;;;23.70;99.90;;;;;;5070779;28;20487;-52
2022/04/20 10:03:28;;;;;;;9.32;5.07;;;23.60;99.90;;;;;;5078894;28;20535;-51
2022/04/20 10:05:56;;;;;;;12.30;4.80;;;23.70;99.90;;;;;;5071218;28;20031;-51
2022/04/20 10:08:23;;;;;;;10.52;5.15;;;23.70;99.90;;;;;;5082060;28;20475;-51
2022/04/20 10:10:51;;;;;;;11.27;5.25;;;23.70;99.90;;;;;;5071248;28;20064;-50
2022/04/20 10:13:17;;;;;;;9.13;4.75;;;23.70;99.90;;;;;;5070953;28;20025;-52
2022/04/20 10:16:07;;;;;;;9.77;5.63;;;23.80;99.90;;;;;;5071054;28;20028;-51
2022/04/20 10:18:38;;;;;;;6.25;4.40;;;23.80;99.90;;;;;;5070633;28;20027;-52
2022/04/20 10:21:12;;;;;;;9.40;5.13;;;23.90;99.90;;;;;;5070873;28;20028;-52
2022/04/20 10:23:43;;;;;;;9.07;5.03;;;24.00;99.90;;;;;;5069634;28;20027;-52
2022/04/20 10:26:10;;;;;;;10.52;5.35;;;24.00;99.90;;;;;;5070954;28;20085;-52
2022/04/20 10:29:04;;;;;;;9.82;5.07;;;24.10;99.90;;;;;;5070881;28;20475;-52
2022/04/20 10:31:56;;;;;;;10.80;5.18;;;24.10;99.90;;;;;;5058025;28;20027;-52
2022/04/20 10:34:22;;;;;;;11.10;5.88;;;24.30;99.90;;;;;;5070622;28;20475;-52
2022/04/20 10:37:01;;;;;;;10.48;5.45;;;24.30;99.90;;;;;;5074944;28;20031;-51
2022/04/20 10:39:30;;;;;;;12.57;6.10;;;24.40;99.90;;;;;;5087557;28;20071;-51
2022/04/20 10:42:17;;;;;;;8.10;5.70;;;24.50;99.90;;;;;;5074910;28;20035;-51
2022/04/20 10:45:05;;;;;;;9.77;6.43;;;24.50;99.90;;;;;;5074626;28;20557;-51
2022/04/20 10:47:36;;;;;;;12.77;6.00;;;24.60;99.90;;;;;;5074650;28;20360;-51
2022/04/20 10:50:13;;;;;;;9.55;5.82;;;24.60;99.90;;;;;;5074401;28;20712;-51
2022/04/20 10:52:41;;;;;;;9.55;5.93;;;24.60;99.90;;;;;;5074418;28;20021;-51
2022/04/20 10:55:11;;;;;;;10.73;6.15;;;24.70;99.90;;;;;;5074289;28;20074;-52
2022/04/20 10:57:41;;;;;;;11.45;5.85;;;24.70;99.90;;;;;;5074490;28;20086;-52
2022/04/20 11:00:34;;;;;;;10.95;6.47;;;24.70;99.90;;;;;;5074168;28;20043;-52
2022/04/20 11:03:05;;;;;;;8.77;6.80;;;24.80;99.90;;;;;;5080393;28;20089;-52
2022/04/20 11:05:33;;;;;;;11.85;7.55;;;24.90;99.90;;;;;;5074395;28;20021;-52
2022/04/20 11:08:02;;;;;;;;;;;25.00;99.90;;;;;;5075164;28;20150;-52
2022/04/20 11:10:28;;;;;;;11.70;7.78;;;25.00;99.90;;;;;;5074449;28;20283;-52
2022/04/20 11:19:06;;;;;;;12.70;6.50;;;25.10;99.90;;;;;;5068994;28;20128;-52
2022/04/20 11:21:32;;;;;;;12.60;7.70;;;25.10;99.90;;;;;;5070290;28;20501;-52
2022/04/20 11:24:03;;;;;;;11.20;7.15;;;25.10;99.90;;;;;;5072286;28;20024;-52
2022/04/20 11:26:48;;;;;;;13.30;8.50;;;25.20;99.90;;;;;;5072962;28;20103;-52
2022/04/20 11:29:25;;;;;;;13.82;7.60;;;25.20;99.90;;;;;;5073766;28;20029;-52
2022/04/20 11:32:02;;;;;;;10.20;7.03;;;25.30;99.90;;;;;;5074031;28;20103;-52
2022/04/20 11:34:32;;;;;;;10.23;6.95;;;25.30;99.90;;;;;;5075887;28;20097;-52
2022/04/20 11:37:00;;;;;;;16.80;6.97;;;25.30;99.90;;;;;;5073978;28;20484;-52
2022/04/20 11:39:30;;;;;;;13.07;5.88;;;25.30;99.90;;;;;;5072362;28;20473;-52
2022/04/20 11:42:06;;;;;;;9.32;5.40;;;25.30;99.90;;;;;;5071578;28;20136;-50
2022/04/20 11:44:39;;;;;;;8.15;5.28;;;25.30;99.90;;;;;;5071752;28;20021;-51
2022/04/20 11:47:10;;;;;;;10.27;5.53;;;25.30;99.90;;;;;;5071239;28;20016;-50
2022/04/20 11:49:40;;;;;;;9.55;5.80;;;25.30;99.90;;;;;;5066675;28;20029;-50
2022/04/20 11:52:09;;;;;;;9.10;4.85;;;25.20;99.90;;;;;;5069424;28;20048;-50
2022/04/20 11:54:36;;;;;;;8.73;4.32;;;25.30;99.90;;;;;;5072456;28;20025;-50
2022/04/20 11:57:03;;;;;;;7.95;3.88;;;25.20;99.90;;;;;;5072454;28;20021;-52
2022/04/20 11:59:29;;;;;;;19.23;5.72;;;25.20;99.90;;;;;;5071984;28;20075;-50
2022/04/20 12:01:56;;;;;;;10.23;4.45;;;25.20;99.90;;;;;;5072335;28;20060;-51
2022/04/20 12:04:27;;;;;;;12.65;5.45;;;25.20;99.90;;;;;;5077129;28;20028;-51
2022/04/20 12:07:01;;;;;;;12.82;4.63;;;25.20;99.90;;;;;;5073146;28;20025;-51
2022/04/20 12:09:32;;;;;;;10.02;4.60;;;25.20;99.90;;;;;;5072459;28;20029;-51
2022/04/20 12:12:00;;;;;;;17.58;5.05;;;25.10;99.90;;;;;;5055751;28;20031;-52
2022/04/20 12:14:32;;;;;;;13.05;3.75;;;25.10;99.90;;;;;;5051730;28;20075;-52
2022/04/20 12:17:03;;;;;;;11.48;4.25;;;25.10;99.90;;;;;;5051865;28;20021;-52
2022/04/20 12:19:30;;;;;;;14.68;4.88;;;25.00;99.90;;;;;;5066452;28;20041;-52
2022/04/20 12:22:12;;;;;;;19.02;6.63;;;25.10;99.90;;;;;;5069102;28;20039;-52
2022/04/20 12:24:42;;;;;;;29.25;20.35;;;25.10;99.90;;;;;;5067171;28;20029;-52
2022/04/20 12:27:22;;;;;;;29.50;21.00;;;25.10;99.90;;;;;;5072569;28;20034;-51
2022/04/20 12:29:56;;;;;;;30.67;23.15;;;25.10;99.90;;;;;;5053800;28;20074;-51
2022/04/20 12:32:30;;;;;;;28.17;23.00;;;25.10;99.90;;;;;;5067914;28;20033;-52
2022/04/20 12:35:01;;;;;;;30.27;20.98;;;25.00;99.90;;;;;;5066050;28;20032;-53
2022/04/20 12:37:31;;;;;;;26.10;20.42;;;25.00;99.90;;;;;;5078852;28;20038;-51
2022/04/20 12:40:17;;;;;;;22.15;16.50;;;25.00;99.90;;;;;;5058679;28;20048;-51
2022/04/20 12:43:07;;;;;;;21.83;16.00;;;25.00;99.90;;;;;;5055147;28;20082;-50
2022/04/20 12:45:33;;;;;;;18.05;14.07;;;24.90;99.90;;;;;;5054164;28;20036;-50
2022/04/20 12:48:06;;;;;;;19.80;13.07;;;24.80;99.90;;;;;;5055489;28;20032;-50
2022/04/20 12:50:38;;;;;;;18.52;12.40;;;24.80;99.90;;;;;;5072041;28;20107;-50
2022/04/20 12:53:04;;;;;;;15.63;10.60;;;24.70;99.90;;;;;;5070879;28;20039;-51
2022/04/20 13:04:12;;;;;;;13.90;7.90;;;24.60;99.90;;;;;;5053455;28;20060;-49
2022/04/20 13:06:38;;;;;;;16.00;7.28;;;24.60;99.90;;;;;;5067903;28;20067;-51
2022/04/20 13:09:04;;;;;;;13.25;6.43;;;24.60;99.90;;;;;;5070377;28;20025;-52
2022/04/20 13:11:29;;;;;;;9.68;6.38;;;24.60;99.90;;;;;;5060909;28;20033;-50
2022/04/20 13:13:58;;;;;;;8.70;5.80;;;24.60;99.90;;;;;;5058943;28;20028;-51
2022/04/20 13:16:24;;;;;;;10.38;5.07;;;24.60;99.90;;;;;;5068870;28;20039;-50
2022/04/20 13:18:51;;;;;;;13.77;6.05;;;24.60;99.90;;;;;;5068712;28;20037;-51
2022/04/20 13:21:16;;;;;;;10.80;3.90;;;24.60;99.90;;;;;;5069223;28;20028;-50
2022/04/20 13:23:42;;;;;;;13.32;4.00;;;24.60;99.90;;;;;;5069522;28;20017;-50